Observation data for Plains on 06/20/2019      Previous  Date  Next       Current Mesonet Observations  Soil Data  Daily Summary Page  Observations in Plain Language
KPPS 200500Z 24006KT 24/06 A2986 RMK A01 T02350059  RH  033%=      5-min Rain = 0
KPPS 200505Z 24006KT 23/06 A2987 RMK A01 T02330059  RH  033%=      5-min Rain = 0
KPPS 200510Z 25007KT 22/07 A2986 RMK A01 T02240071  RH  038%=      5-min Rain = 0
KPPS 200515Z 24007KT 22/07 A2987 RMK A01 T02160074  RH  041%=      5-min Rain = 0
KPPS 200520Z 26005KT 22/07 A2986 RMK A01 T02150070  RH  040%=      5-min Rain = 0
KPPS 200525Z 29004KT 22/06 A2987 RMK A01 T02190062  RH  037%=      5-min Rain = 0
KPPS 200530Z 02007KT 22/07 A2987 RMK A01 T02160070  RH  040%=      5-min Rain = 0
KPPS 200535Z 03006KT 23/06 A2987 RMK A01 T02260056  RH  034%=      5-min Rain = 0
KPPS 200540Z 03005KT 25/04 A2987 RMK A01 T02450043  RH  028%=      5-min Rain = 0
KPPS 200545Z 01003KT 26/03 A2987 RMK A01 T02560034  RH  024%=      5-min Rain = 0
KPPS 200550Z 02003KT 25/04 A2987 RMK A01 T02510043  RH  027%=      5-min Rain = 0
KPPS 200555Z 02003KT 25/05 A2987 RMK A01 T02450054  RH  030%=      5-min Rain = 0
KPPS 200600Z 36003KT 24/06 A2988 RMK A01 T02410059  RH  032%=      5-min Rain = 0
KPPS 200605Z 36003KT 24/06 A2988 RMK A01 T02360063  RH  034%=      5-min Rain = 0
KPPS 200610Z 03006KT 23/07 A2988 RMK A01 T02310072  RH  037%=      5-min Rain = 0
KPPS 200615Z 04006KT 22/09 A2988 RMK A01 T02230086  RH  043%=      5-min Rain = 0
KPPS 200620Z 04005KT 22/10 A2988 RMK A01 T02190100  RH  048%=      5-min Rain = 0
KPPS 200625Z 03004KT 22/11 A2988 RMK A01 T02180110  RH  052%=      5-min Rain = 0
KPPS 200630Z 04005KT 22/12 A2988 RMK A01 T02180121  RH  056%=      5-min Rain = 0
KPPS 200635Z 02003KT 22/13 A2988 RMK A01 T02200126  RH  057%=      5-min Rain = 0
KPPS 200640Z 33004G11KT 22/11 A2987 RMK A01 T02240111  RH  051%=      5-min Rain = 0
KPPS 200645Z 31008G13KT 25/05 A2987 RMK A01 T02490045  RH  028%=      5-min Rain = 0
KPPS 200650Z 33006KT 26/04 A2987 RMK A01 T02560041  RH  026%=      5-min Rain = 0
KPPS 200655Z 30006KT 25/03 A2987 RMK A01 T02510029  RH  024%=      5-min Rain = 0
KPPS 200700Z 34004KT 25/04 A2987 RMK A01 T02460044  RH  028%=      5-min Rain = 0
KPPS 200705Z 34003KT 25/05 A2987 RMK A01 T02450052  RH  029%=      5-min Rain = 0
KPPS 200710Z 33005KT 24/06 A2987 RMK A01 T02410059  RH  032%=      5-min Rain = 0
KPPS 200715Z 32006KT 24/06 A2987 RMK A01 T02390063  RH  033%=      5-min Rain = 0
KPPS 200720Z 30007KT 24/05 A2986 RMK A01 T02400051  RH  030%=      5-min Rain = 0
KPPS 200725Z 31007KT 24/05 A2986 RMK A01 T02420048  RH  029%=      5-min Rain = 0
KPPS 200730Z 30007KT 23/05 A2986 RMK A01 T02330054  RH  032%=      5-min Rain = 0
KPPS 200735Z 31007KT 23/05 A2986 RMK A01 T02300047  RH  031%=      5-min Rain = 0
KPPS 200740Z 32005KT 22/06 A2986 RMK A01 T02190058  RH  036%=      5-min Rain = 0
KPPS 200745Z 33006KT 22/06 A2986 RMK A01 T02160060  RH  037%=      5-min Rain = 0
KPPS 200750Z 33007KT 21/07 A2986 RMK A01 T02120069  RH  041%=      5-min Rain = 0
KPPS 200755Z 32007KT 21/07 A2986 RMK A01 T02130066  RH  040%=      5-min Rain = 0
KPPS 200800Z 32008KT 22/05 A2986 RMK A01 T02150054  RH  036%=      5-min Rain = 0
KPPS 200805Z 31008KT 22/04 A2986 RMK A01 T02200041  RH  032%=      5-min Rain = 0
KPPS 200810Z 32007KT 21/04 A2986 RMK A01 T02140044  RH  034%=      5-min Rain = 0
KPPS 200815Z 31007KT 21/05 A2986 RMK A01 T02060046  RH  036%=      5-min Rain = 0
KPPS 200820Z 31008KT 20/04 A2986 RMK A01 T02020040  RH  035%=      5-min Rain = 0
KPPS 200825Z 31007KT 20/03 A2986 RMK A01 T02020033  RH  033%=      5-min Rain = 0
KPPS 200830Z 30008KT 21/02 A2986 RMK A01 T02100024  RH  030%=      5-min Rain = 0
KPPS 200835Z 31007KT 21/02 A2985 RMK A01 T02120023  RH  029%=      5-min Rain = 0
KPPS 200840Z 30008KT 21/02 A2985 RMK A01 T02120021  RH  029%=      5-min Rain = 0
KPPS 200845Z 30008KT 21/02 A2985 RMK A01 T02120021  RH  029%=      5-min Rain = 0
KPPS 200850Z 30007KT 21/02 A2985 RMK A01 T02120021  RH  029%=      5-min Rain = 0
KPPS 200855Z 30006KT 21/02 A2985 RMK A01 T02090024  RH  030%=      5-min Rain = 0
KPPS 200900Z 31005KT 20/03 A2985 RMK A01 T02040025  RH  031%=      5-min Rain = 0
KPPS 200905Z 31004KT 20/03 A2985 RMK A01 T02020025  RH  031%=      5-min Rain = 0
KPPS 200910Z 31004KT 20/02 A2985 RMK A01 T01990024  RH  032%=      5-min Rain = 0
KPPS 200915Z 32004KT 20/02 A2985 RMK A01 T01990021  RH  031%=      5-min Rain = 0
KPPS 200920Z 31004KT 20/02 A2985 RMK A01 T02020021  RH  031%=      5-min Rain = 0
KPPS 200925Z 31004KT 21/02 A2985 RMK A01 T02050024  RH  031%=      5-min Rain = 0
KPPS 200930Z 31003KT 21/03 A2984 RMK A01 T02050033  RH  033%=      5-min Rain = 0
KPPS 200935Z 30003KT 20/05 A2984 RMK A01 T02040046  RH  036%=      5-min Rain = 0
KPPS 200940Z 30003KT 20/05 A2985 RMK A01 T02040051  RH  037%=      5-min Rain = 0
KPPS 200945Z 30003KT 20/04 A2985 RMK A01 T01990043  RH  036%=      5-min Rain = 0
KPPS 200950Z 30003KT 20/05 A2985 RMK A01 T01960047  RH  038%=      5-min Rain = 0
KPPS 200955Z 30004KT 19/05 A2985 RMK A01 T01940049  RH  039%=      5-min Rain = 0
KPPS 201000Z 31005KT 19/06 A2985 RMK A01 T01930057  RH  042%=      5-min Rain = 0
KPPS 201005Z 31005KT 19/05 A2985 RMK A01 T01880053  RH  042%=      5-min Rain = 0
KPPS 201010Z 33006KT 18/05 A2985 RMK A01 T01790052  RH  044%=      5-min Rain = 0
KPPS 201015Z 32007KT 17/06 A2985 RMK A01 T01690063  RH  051%=      5-min Rain = 0
KPPS 201020Z 32007KT 16/07 A2985 RMK A01 T01640071  RH  055%=      5-min Rain = 0
KPPS 201025Z 31007KT 17/07 A2985 RMK A01 T01660071  RH  055%=      5-min Rain = 0
KPPS 201030Z 31007KT 17/07 A2985 RMK A01 T01710070  RH  053%=      5-min Rain = 0
KPPS 201035Z 30007KT 18/05 A2985 RMK A01 T01790053  RH  045%=      5-min Rain = 0
KPPS 201040Z 31007KT 19/05 A2985 RMK A01 T01880049  RH  041%=      5-min Rain = 0
KPPS 201045Z 30008KT 19/05 A2985 RMK A01 T01860046  RH  041%=      5-min Rain = 0
KPPS 201050Z 31008KT 18/06 A2985 RMK A01 T01840058  RH  045%=      5-min Rain = 0
KPPS 201055Z 31005KT 17/06 A2985 RMK A01 T01730059  RH  048%=      5-min Rain = 0
KPPS 201100Z 30001KT 17/06 A2985 RMK A01 T01690058  RH  049%=      5-min Rain = 0
KPPS 201105Z 26001KT 16/07 A2985 RMK A01 T01600068  RH  056%=      5-min Rain = 0
KPPS 201110Z 30003KT 16/06 A2985 RMK A01 T01580061  RH  054%=      5-min Rain = 0
KPPS 201115Z 31004KT 17/05 A2985 RMK A01 T01650051  RH  048%=      5-min Rain = 0
KPPS 201120Z 32005KT 17/05 A2985 RMK A01 T01730045  RH  044%=      5-min Rain = 0
KPPS 201125Z 31006KT 18/05 A2985 RMK A01 T01760046  RH  043%=      5-min Rain = 0
KPPS 201130Z 32007KT 17/05 A2986 RMK A01 T01730049  RH  045%=      5-min Rain = 0
KPPS 201135Z 32007KT 17/05 A2986 RMK A01 T01690050  RH  046%=      5-min Rain = 0
KPPS 201140Z 31008KT 17/05 A2986 RMK A01 T01680051  RH  047%=      5-min Rain = 0
KPPS 201145Z 31008KT 16/06 A2986 RMK A01 T01610056  RH  051%=      5-min Rain = 0
KPPS 201150Z 31007KT 16/05 A2986 RMK A01 T01610051  RH  049%=      5-min Rain = 0
KPPS 201155Z 31007KT 16/05 A2986 RMK A01 T01620048  RH  048%=      5-min Rain = 0
KPPS 201200Z 30007KT 17/04 A2986 RMK A01 T01700041  RH  043%=      5-min Rain = 0
KPPS 201205Z 30007KT 17/04 A2986 RMK A01 T01730043  RH  043%=      5-min Rain = 0
KPPS 201210Z 30007KT 17/04 A2986 RMK A01 T01740044  RH  043%=      5-min Rain = 0
KPPS 201215Z 32008KT 17/05 A2987 RMK A01 T01670054  RH  048%=      5-min Rain = 0
KPPS 201220Z 30006KT 17/05 A2987 RMK A01 T01690050  RH  046%=      5-min Rain = 0
KPPS 201225Z 32006KT 17/05 A2987 RMK A01 T01740053  RH  046%=      5-min Rain = 0
KPPS 201230Z 31005KT 18/06 A2987 RMK A01 T01750055  RH  046%=      5-min Rain = 0
KPPS 201235Z 29004KT 18/06 A2987 RMK A01 T01780056  RH  046%=      5-min Rain = 0
KPPS 201240Z 29005KT 18/06 A2987 RMK A01 T01810058  RH  046%=      5-min Rain = 0
KPPS 201245Z 30005KT 18/06 A2988 RMK A01 T01830059  RH  045%=      5-min Rain = 0
KPPS 201250Z 30006KT 19/07 A2988 RMK A01 T01860065  RH  046%=      5-min Rain = 0
KPPS 201255Z 30006KT 19/07 A2988 RMK A01 T01900067  RH  046%=      5-min Rain = 0
KPPS 201300Z 29005KT 20/06 A2988 RMK A01 T01970063  RH  042%=      5-min Rain = 0
KPPS 201305Z 30005KT 20/07 A2988 RMK A01 T02020066  RH  042%=      5-min Rain = 0
KPPS 201310Z 30006KT 20/07 A2988 RMK A01 T02040066  RH  042%=      5-min Rain = 0
KPPS 201315Z 30005KT 21/07 A2989 RMK A01 T02070067  RH  041%=      5-min Rain = 0
KPPS 201320Z 28005KT 21/07 A2989 RMK A01 T02100072  RH  042%=      5-min Rain = 0
KPPS 201325Z 28004KT 21/07 A2989 RMK A01 T02140069  RH  040%=      5-min Rain = 0
KPPS 201330Z 26004KT 22/07 A2989 RMK A01 T02170070  RH  040%=      5-min Rain = 0
KPPS 201335Z 26005KT 22/07 A2989 RMK A01 T02200067  RH  038%=      5-min Rain = 0
KPPS 201340Z 26006KT 23/07 A2989 RMK A01 T02250066  RH  037%=      5-min Rain = 0
KPPS 201350Z 29010KT 25/04 A2989 RMK A01 T02460043  RH  028%=      5-min Rain = 0
KPPS 201355Z 29009KT 25/05 A2989 RMK A01 T02490050  RH  028%=      5-min Rain = 0
KPPS 201400Z 29008KT 25/05 A2989 RMK A01 T02530054  RH  028%=      5-min Rain = 0
KPPS 201405Z 29009KT 26/05 A2989 RMK A01 T02570049  RH  027%=      5-min Rain = 0
KPPS 201410Z 29007KT 26/05 A2989 RMK A01 T02640052  RH  026%=      5-min Rain = 0
KPPS 201415Z 29006KT 27/06 A2989 RMK A01 T02690055  RH  026%=      5-min Rain = 0
KPPS 201420Z 30007KT 28/05 A2989 RMK A01 T02760050  RH  024%=      5-min Rain = 0
KPPS 201425Z 30008KT 29/05 A2989 RMK A01 T02850046  RH  022%=      5-min Rain = 0
KPPS 201430Z 30009KT 29/03 A299 RMK A01 T02900033  RH  020%=      5-min Rain = 0
KPPS 201435Z 31009KT 30/03 A299 RMK A01 T02950028  RH  018%=      5-min Rain = 0
KPPS 201440Z 30009KT 30/03 A299 RMK A01 T02990029  RH  018%=      5-min Rain = 0
KPPS 201445Z 30009KT 30/03 A299 RMK A01 T03010031  RH  018%=      5-min Rain = 0
KPPS 201450Z 30008KT 30/04 A299 RMK A01 T03030036  RH  019%=      5-min Rain = 0
KPPS 201455Z 31008G13KT 31/03 A299 RMK A01 T03080033  RH  018%=      5-min Rain = 0
KPPS 201500Z 30009KT 31/03 A2989 RMK A01 T03110029  RH  017%=      5-min Rain = 0
KPPS 201505Z 30009KT 31/03 A2989 RMK A01 T03130034  RH  017%=      5-min Rain = 0
KPPS 201510Z 31009KT 32/03 A2989 RMK A01 T03180032  RH  017%=      5-min Rain = 0
KPPS 201515Z 30008KT 32/04 A2989 RMK A01 T03210037  RH  017%=      5-min Rain = 0
KPPS 201520Z 30006KT 32/04 A2989 RMK A01 T03220036  RH  017%=      5-min Rain = 0
KPPS 201525Z 30006KT 33/04 A2989 RMK A01 T03250035  RH  016%=      5-min Rain = 0
KPPS 201530Z 29007KT 33/04 A2989 RMK A01 T03270036  RH  016%=      5-min Rain = 0
KPPS 201535Z 31004KT 33/04 A2989 RMK A01 T03260035  RH  016%=      5-min Rain = 0
KPPS 201540Z 28005KT 33/04 A2989 RMK A01 T03290038  RH  016%=      5-min Rain = 0
KPPS 201545Z 29006KT 33/04 A2989 RMK A01 T03300040  RH  017%=      5-min Rain = 0
KPPS 201550Z 28005KT 33/04 A2989 RMK A01 T03310041  RH  017%=      5-min Rain = 0
KPPS 201555Z 30004KT 34/04 A2989 RMK A01 T03360042  RH  016%=      5-min Rain = 0
KPPS 201600Z 28004KT 34/04 A2989 RMK A01 T03360036  RH  015%=      5-min Rain = 0
KPPS 201605Z 26005KT 34/03 A2989 RMK A01 T03390031  RH  015%=      5-min Rain = 0
KPPS 201610Z 26004KT 34/03 A2989 RMK A01 T03400029  RH  014%=      5-min Rain = 0
KPPS 201615Z 26002KT 34/02 A2989 RMK A01 T03430022  RH  013%=      5-min Rain = 0
KPPS 201620Z 28003KT 35/02 A2989 RMK A01 T03460024  RH  013%=      5-min Rain = 0
KPPS 201625Z 24004KT 34/02 A2989 RMK A01 T03440019  RH  013%=      5-min Rain = 0
KPPS 201630Z 25004KT 35/02 A2989 RMK A01 T03460024  RH  013%=      5-min Rain = 0
KPPS 201635Z 27004KT 35/02 A2989 RMK A01 T03480017  RH  013%=      5-min Rain = 0
KPPS 201640Z 23004KT 35/02 A2989 RMK A01 T03490019  RH  013%=      5-min Rain = 0
KPPS 201645Z 23004KT 35/02 A2989 RMK A01 T03490018  RH  013%=      5-min Rain = 0
KPPS 201650Z 20004KT 35/02 A2989 RMK A01 T03510018  RH  012%=      5-min Rain = 0
KPPS 201655Z 25002KT 35/02 A2988 RMK A01 T03520019  RH  012%=      5-min Rain = 0
KPPS 201700Z 21004KT 36/02 A2988 RMK A01 T03560015  RH  012%=      5-min Rain = 0
KPPS 201705Z 20006KT 36/01 A2988 RMK A01 T03560014  RH  012%=      5-min Rain = 0
KPPS 201710Z 17007KT 36/03 A2988 RMK A01 T03550025  RH  013%=      5-min Rain = 0
KPPS 201715Z 14008KT 36/05 A2988 RMK A01 T03550050  RH  015%=      5-min Rain = 0
KPPS 201720Z 16010KT 36/04 A2988 RMK A01 T03560044  RH  015%=      5-min Rain = 0
KPPS 201725Z 14009KT 36/05 A2988 RMK A01 T03580045  RH  015%=      5-min Rain = 0
KPPS 201730Z 14009KT 36/04 A2988 RMK A01 T03570041  RH  014%=      5-min Rain = 0
KPPS 201735Z 13011KT 36/06 A2988 RMK A01 T03580062  RH  017%=      5-min Rain = 0
KPPS 201740Z 14011KT 36/05 A2988 RMK A01 T03550049  RH  015%=      5-min Rain = 0
KPPS 201745Z 14012KT 36/05 A2988 RMK A01 T03550049  RH  015%=      5-min Rain = 0
KPPS 201750Z 15011G17KT 36/04 A2988 RMK A01 T03580040  RH  014%=      5-min Rain = 0
KPPS 201755Z 16012G17KT 36/04 A2987 RMK A01 T03620035  RH  013%=      5-min Rain = 0
KPPS 201800Z 16012KT 36/05 A2987 RMK A01 T03620046  RH  014%=      5-min Rain = 0
KPPS 201805Z 17012G17KT 36/05 A2987 RMK A01 T03640046  RH  014%=      5-min Rain = 0
KPPS 201810Z 17012KT 36/05 A2988 RMK A01 T03620050  RH  015%=      5-min Rain = 0
KPPS 201815Z 16013G18KT 36/05 A2988 RMK A01 T03580052  RH  015%=      5-min Rain = 0
KPPS 201820Z 16013KT 36/06 A2987 RMK A01 T03610059  RH  016%=      5-min Rain = 0
KPPS 201825Z 16011KT 36/05 A2987 RMK A01 T03610051  RH  015%=      5-min Rain = 0
KPPS 201830Z 15013G18KT 36/04 A2987 RMK A01 T03610044  RH  014%=      5-min Rain = 0
KPPS 201835Z 14012G17KT 36/05 A2987 RMK A01 T03630046  RH  014%=      5-min Rain = 0
KPPS 201840Z 15013G19KT 37/04 A2987 RMK A01 T03670041  RH  014%=      5-min Rain = 0
KPPS 201845Z 17013KT 37/03 A2987 RMK A01 T03680034  RH  013%=      5-min Rain = 0
KPPS 201850Z 16013KT 37/03 A2986 RMK A01 T03670032  RH  013%=      5-min Rain = 0
KPPS 201855Z 16012G17KT 36/03 A2986 RMK A01 T03640029  RH  013%=      5-min Rain = 0
KPPS 201900Z 18012G20KT 36/02 A2986 RMK A01 T03550020  RH  012%=      5-min Rain = 0
KPPS 201905Z 18011G18KT 36/03 A2986 RMK A01 T03590026  RH  013%=      5-min Rain = 0
KPPS 201910Z 19013G20KT 36/01 A2986 RMK A01 T03590014  RH  012%=      5-min Rain = 0
KPPS 201915Z 16009KT 36/01 A2986 RMK A01 T03610014  RH  011%=      5-min Rain = 0
KPPS 201920Z 16014G21KT 37/02 A2986 RMK A01 T03680016  RH  011%=      5-min Rain = 0
KPPS 201925Z 18011G16KT 36/01 A2986 RMK A01 T03580011  RH  011%=      5-min Rain = 0
KPPS 201930Z 18011KT 36/01 A2986 RMK A01 T03570010  RH  011%=      5-min Rain = 0
KPPS 201935Z 20011KT 36/01 A2986 RMK A01 T03640012  RH  011%=      5-min Rain = 0
KPPS 201940Z 21008G13KT 37/M00 A2985 RMK A01 T03661003  RH  010%=      5-min Rain = 0
KPPS 201945Z 21015G22KT 36/M01 A2985 RMK A01 T03601006  RH  010%=      5-min Rain = 0
KPPS 201950Z 22014G19KT 36/M01 A2985 RMK A01 T03581011  RH  010%=      5-min Rain = 0
KPPS 201955Z 23014G19KT 36/M01 A2985 RMK A01 T03631014  RH  009%=      5-min Rain = 0
KPPS 202000Z 21013G19KT 37/M02 A2985 RMK A01 T03701016  RH  009%=      5-min Rain = 0
KPPS 202005Z 21006KT 37/M02 A2984 RMK A01 T03711015  RH  009%=      5-min Rain = 0
KPPS 202010Z 22014G20KT 38/M01 A2984 RMK A01 T03761008  RH  009%=      5-min Rain = 0
KPPS 202015Z 20015G22KT 38/M01 A2984 RMK A01 T03751013  RH  009%=      5-min Rain = 0
KPPS 202020Z 24012G22KT 38/M01 A2984 RMK A01 T03771006  RH  009%=      5-min Rain = 0
KPPS 202025Z 25012G18KT 38/M01 A2984 RMK A01 T03811005  RH  009%=      5-min Rain = 0
KPPS 202030Z 21013KT 38/M02 A2984 RMK A01 T03761015  RH  009%=      5-min Rain = 0
KPPS 202035Z 23009KT 37/M01 A2984 RMK A01 T03671013  RH  009%=      5-min Rain = 0
KPPS 202040Z 22010G16KT 37/M01 A2984 RMK A01 T03741008  RH  009%=      5-min Rain = 0
KPPS 202045Z 25009KT 38/M01 A2983 RMK A01 T03751007  RH  009%=      5-min Rain = 0
KPPS 202050Z 22008G13KT 37/M01 A2983 RMK A01 T03691009  RH  009%=      5-min Rain = 0
KPPS 202055Z 23014KT 37/M01 A2983 RMK A01 T03721007  RH  009%=      5-min Rain = 0
KPPS 202100Z 21015G20KT 38/M01 A2983 RMK A01 T03771006  RH  009%=      5-min Rain = 0
KPPS 202105Z 19013G18KT 37/M01 A2983 RMK A01 T03731009  RH  009%=      5-min Rain = 0
KPPS 202110Z 22010G16KT 37/M01 A2983 RMK A01 T03691007  RH  009%=      5-min Rain = 0
KPPS 202115Z 24011G17KT 38/M00 A2983 RMK A01 T03761003  RH  009%=      5-min Rain = 0
KPPS 202120Z 23006G12KT 38/M01 A2982 RMK A01 T03751009  RH  009%=      5-min Rain = 0
KPPS 202125Z 24013G20KT 38/M01 A2982 RMK A01 T03761008  RH  009%=      5-min Rain = 0
KPPS 202130Z 24015G22KT 37/M01 A2982 RMK A01 T03661014  RH  009%=      5-min Rain = 0
KPPS 202135Z 23012G17KT 38/M01 A2982 RMK A01 T03781006  RH  009%=      5-min Rain = 0
KPPS 202140Z 22010G16KT 38/M01 A2982 RMK A01 T03781006  RH  009%=      5-min Rain = 0
KPPS 202145Z 20011G19KT 38/M02 A2982 RMK A01 T03751015  RH  009%=      5-min Rain = 0
KPPS 202150Z 20009G17KT 38/M01 A2981 RMK A01 T03761014  RH  009%=      5-min Rain = 0
KPPS 202155Z 23015G22KT 38/M01 A2981 RMK A01 T03771014  RH  009%=      5-min Rain = 0
KPPS 202200Z 23013G19KT 38/M01 A2981 RMK A01 T03781012  RH  009%=      5-min Rain = 0
KPPS 202205Z 26010G17KT 38/M02 A2981 RMK A01 T03791015  RH  008%=      5-min Rain = 0
KPPS 202210Z 24012G19KT 38/M01 A2981 RMK A01 T03781013  RH  009%=      5-min Rain = 0
KPPS 202215Z 25013G20KT 38/M01 A2981 RMK A01 T03791014  RH  008%=      5-min Rain = 0
KPPS 202220Z 24014G20KT 38/M01 A2981 RMK A01 T03791011  RH  009%=      5-min Rain = 0
KPPS 202225Z 20011G16KT 38/M01 A2981 RMK A01 T03811009  RH  009%=      5-min Rain = 0
KPPS 202230Z 24013G18KT 38/M02 A2981 RMK A01 T03761016  RH  008%=      5-min Rain = 0
KPPS 202235Z 25010KT 38/M02 A2981 RMK A01 T03751016  RH  009%=      5-min Rain = 0
KPPS 202240Z 24009KT 38/M01 A2981 RMK A01 T03771012  RH  009%=      5-min Rain = 0
KPPS 202245Z 20008G15KT 38/M01 A2981 RMK A01 T03791013  RH  009%=      5-min Rain = 0
KPPS 202250Z 22012G17KT 38/M02 A298 RMK A01 T03781015  RH  008%=      5-min Rain = 0
KPPS 202255Z 23014G22KT 38/M02 A298 RMK A01 T03771016  RH  008%=      5-min Rain = 0
KPPS 202300Z 24014G19KT 38/M02 A298 RMK A01 T03751019  RH  008%=      5-min Rain = 0
KPPS 202305Z 23010KT 37/M03 A298 RMK A01 T03721025  RH  008%=      5-min Rain = 0
KPPS 202310Z 22009KT 37/M02 A298 RMK A01 T03731020  RH  008%=      5-min Rain = 0
KPPS 202315Z 21012G19KT 37/M02 A298 RMK A01 T03731023  RH  008%=      5-min Rain = 0
KPPS 202320Z 20011G16KT 37/M03 A298 RMK A01 T03701025  RH  008%=      5-min Rain = 0
KPPS 202325Z 21008KT 37/M02 A298 RMK A01 T03701024  RH  008%=      5-min Rain = 0
KPPS 202330Z 23011G16KT 37/M02 A2979 RMK A01 T03731017  RH  009%=      5-min Rain = 0
KPPS 202335Z 21013KT 37/M03 A2979 RMK A01 T03711027  RH  008%=      5-min Rain = 0
KPPS 202340Z 22011G17KT 37/M02 A2979 RMK A01 T03691024  RH  008%=      5-min Rain = 0
KPPS 202345Z 20012KT 37/M03 A2979 RMK A01 T03671027  RH  008%=      5-min Rain = 0
KPPS 202350Z 23010KT 37/M02 A2979 RMK A01 T03681017  RH  009%=      5-min Rain = 0
KPPS 202355Z 24012KT 37/M02 A2979 RMK A01 T03681020  RH  009%=      5-min Rain = 0
KPPS 210000Z 26012KT 37/M02 A2979 RMK A01 T03671019  RH  009%=      5-min Rain = 0
KPPS 210005Z 24011G18KT 37/M02 A2979 RMK A01 T03661021  RH  009%=      5-min Rain = 0
KPPS 210010Z 23013KT 37/M02 A2979 RMK A01 T03651022  RH  009%=      5-min Rain = 0
KPPS 210015Z 24012G18KT 36/M02 A2979 RMK A01 T03631019  RH  009%=      5-min Rain = 0
KPPS 210020Z 22012KT 36/M02 A2979 RMK A01 T03631024  RH  009%=      5-min Rain = 0
KPPS 210025Z 23012KT 36/M03 A2979 RMK A01 T03621028  RH  008%=      5-min Rain = 0
KPPS 210030Z 24013KT 36/M03 A2979 RMK A01 T03611028  RH  008%=      5-min Rain = 0
KPPS 210035Z 24012KT 36/M03 A2978 RMK A01 T03601032  RH  008%=      5-min Rain = 0
KPPS 210040Z 23010KT 36/M03 A2979 RMK A01 T03591030  RH  008%=      5-min Rain = 0
KPPS 210045Z 23010KT 36/M03 A2979 RMK A01 T03581028  RH  009%=      5-min Rain = 0
KPPS 210050Z 22009KT 36/M03 A2979 RMK A01 T03571029  RH  009%=      5-min Rain = 0
KPPS 210055Z 22010G16KT 36/M03 A2979 RMK A01 T03551029  RH  009%=      5-min Rain = 0
KPPS 210100Z 23012KT 35/M03 A2979 RMK A01 T03541031  RH  009%=      5-min Rain = 0
KPPS 210105Z 22012KT 35/M04 A2979 RMK A01 T03521044  RH  008%=      5-min Rain = 0
KPPS 210110Z 23013G18KT 35/M04 A2979 RMK A01 T03511044  RH  008%=      5-min Rain = 0
KPPS 210115Z 22012G18KT 35/M05 A2979 RMK A01 T03481047  RH  008%=      5-min Rain = 0
KPPS 210120Z 22011KT 35/M05 A2979 RMK A01 T03451045  RH  008%=      5-min Rain = 0
KPPS 210125Z 22009KT 34/M04 A2979 RMK A01 T03421040  RH  009%=      5-min Rain = 0
KPPS 210130Z 22008KT 34/M04 A2979 RMK A01 T03381037  RH  009%=      5-min Rain = 0
KPPS 210135Z 21007KT 33/M03 A2979 RMK A01 T03321032  RH  010%=      5-min Rain = 0
KPPS 210140Z 22008KT 33/M03 A2979 RMK A01 T03281033  RH  010%=      5-min Rain = 0
KPPS 210145Z 22008KT 32/M03 A2979 RMK A01 T03231032  RH  010%=      5-min Rain = 0
KPPS 210150Z 22009KT 32/M03 A2979 RMK A01 T03181033  RH  010%=      5-min Rain = 0
KPPS 210155Z 22009KT 32/M04 A2979 RMK A01 T03171038  RH  010%=      5-min Rain = 0
KPPS 210200Z 22009KT 31/M04 A298 RMK A01 T03141039  RH  010%=      5-min Rain = 0
KPPS 210205Z 22008KT 31/M04 A298 RMK A01 T03091039  RH  010%=      5-min Rain = 0
KPPS 210210Z 22008KT 30/M04 A298 RMK A01 T03031038  RH  011%=      5-min Rain = 0
KPPS 210215Z 21008KT 30/M04 A298 RMK A01 T02971037  RH  011%=      5-min Rain = 0
KPPS 210220Z 22008KT 29/M04 A298 RMK A01 T02921036  RH  012%=      5-min Rain = 0
KPPS 210225Z 21008KT 29/M03 A298 RMK A01 T02871034  RH  012%=      5-min Rain = 0
KPPS 210230Z 21008KT 28/M03 A298 RMK A01 T02831032  RH  013%=      5-min Rain = 0
KPPS 210235Z 19007KT 27/M03 A298 RMK A01 T02731027  RH  014%=      5-min Rain = 0
KPPS 210240Z 19008KT 27/M02 A298 RMK A01 T02651024  RH  015%=      5-min Rain = 0
KPPS 210245Z 18010KT 26/M02 A2981 RMK A01 T02561017  RH  017%=      5-min Rain = 0
KPPS 210250Z 19009KT 25/M01 A2981 RMK A01 T02541011  RH  018%=      5-min Rain = 0
KPPS 210255Z 18009KT 25/M01 A2981 RMK A01 T02501005  RH  019%=      5-min Rain = 0
KPPS 210300Z 19010KT 25/M00 A2981 RMK A01 T02531003  RH  019%=      5-min Rain = 0
KPPS 210305Z 19009KT 26/M00 A2981 RMK A01 T02591004  RH  018%=      5-min Rain = 0
KPPS 210310Z 19010KT 26/M01 A2981 RMK A01 T02631006  RH  017%=      5-min Rain = 0
KPPS 210315Z 19010KT 27/M01 A2981 RMK A01 T02661006  RH  017%=      5-min Rain = 0
KPPS 210320Z 19009KT 27/M01 A2981 RMK A01 T02651006  RH  017%=      5-min Rain = 0
KPPS 210325Z 20009KT 26/M01 A2982 RMK A01 T02631007  RH  017%=      5-min Rain = 0
KPPS 210330Z 19009KT 26/M01 A2982 RMK A01 T02601007  RH  017%=      5-min Rain = 0
KPPS 210335Z 20009KT 26/M01 A2982 RMK A01 T02571006  RH  018%=      5-min Rain = 0
KPPS 210340Z 20008KT 26/M01 A2982 RMK A01 T02571006  RH  018%=      5-min Rain = 0
KPPS 210345Z 20009KT 25/M00 A2982 RMK A01 T02541004  RH  018%=      5-min Rain = 0
KPPS 210350Z 20009KT 25/M00 A2982 RMK A01 T02511003  RH  019%=      5-min Rain = 0
KPPS 210355Z 20009KT 25/M01 A2983 RMK A01 T02521005  RH  019%=      5-min Rain = 0
KPPS 210400Z 20009KT 25/M01 A2983 RMK A01 T02531006  RH  018%=      5-min Rain = 0
KPPS 210405Z 20009KT 25/M01 A2983 RMK A01 T02531009  RH  018%=      5-min Rain = 0
KPPS 210410Z 20009KT 25/M01 A2983 RMK A01 T02531010  RH  018%=      5-min Rain = 0
KPPS 210415Z 20009KT 25/M01 A2983 RMK A01 T02511008  RH  018%=      5-min Rain = 0
KPPS 210420Z 20009KT 25/M01 A2983 RMK A01 T02491009  RH  018%=      5-min Rain = 0
KPPS 210425Z 20009KT 25/M01 A2983 RMK A01 T02451008  RH  019%=      5-min Rain = 0
KPPS 210430Z 20009KT 24/M01 A2983 RMK A01 T02401008  RH  020%=      5-min Rain = 0
KPPS 210435Z 20009KT 24/M01 A2983 RMK A01 T02381008  RH  020%=      5-min Rain = 0
KPPS 210440Z 20009KT 24/M01 A2983 RMK A01 T02381007  RH  020%=      5-min Rain = 0
KPPS 210445Z 20009KT 23/M01 A2983 RMK A01 T02341007  RH  020%=      5-min Rain = 0
KPPS 210450Z 20008KT 23/M01 A2983 RMK A01 T02341008  RH  020%=      5-min Rain = 0
KPPS 210455Z 20008KT 23/M01 A2983 RMK A01 T02331009  RH  020%=      5-min Rain = 0

Page generated in 0.032 seconds.